Time;durP1;ratioP1;P1;durP2;ratioP2;P2;SDS_P1;SDS_P2;PMS_P1;PMS_P2;Temp;Humidity;BMP_temperature;BMP_pressure;BME280_temperature;BME280_humidity;BME280_pressure;Samples;Min_cycle;Max_cycle;Signal;HPM_P1;HPM_P2
2022/07/04 00:04:55;;;;;;;5.10;4.40;;;;;;;15.74;70.78;99938.84;213172;1281;141633;-62
2022/07/04 00:09:59;;;;;;;4.70;4.40;;;;;;;15.84;71.11;99933.98;213108;1281;140908;-65
2022/07/04 00:15:05;;;;;;;4.60;4.30;;;;;;;15.94;71.27;99936.09;213043;1281;141518;-66
2022/07/04 00:20:09;;;;;;;6.10;4.60;;;;;;;16.01;71.46;99934.61;214596;1281;141530;-66
2022/07/04 00:25:13;;;;;;;6.60;4.50;;;;;;;16.08;71.35;99932.48;214643;1280;141657;-65
2022/07/04 00:30:16;;;;;;;4.50;4.20;;;;;;;16.16;71.28;99928.47;214827;1281;141539;-64
2022/07/04 00:35:20;;;;;;;4.10;3.80;;;;;;;16.19;71.12;99923.64;215187;1280;140585;-65
2022/07/04 00:40:23;;;;;;;5.90;3.60;;;;;;;16.23;70.96;99918.34;215521;1279;140759;-65
2022/07/04 00:45:25;;;;;;;4.60;4.20;;;;;;;16.27;70.78;99913.30;215326;1278;140733;-66
2022/07/04 00:50:28;;;;;;;5.00;4.60;;;;;;;16.29;70.70;99913.30;214880;1278;141386;-64
2022/07/04 00:55:33;;;;;;;6.60;4.30;;;;;;;16.22;70.56;99911.73;213329;1279;140796;-65
2022/07/04 01:00:36;;;;;;;5.30;4.80;;;;;;;16.13;70.87;99915.83;213083;1279;153868;-65
2022/07/04 01:05:41;;;;;;;10.00;4.70;;;;;;;16.11;71.23;99910.38;212997;1281;141638;-64
2022/07/04 01:10:45;;;;;;;10.20;4.60;;;;;;;16.12;71.34;99904.36;213166;1281;140907;-66
2022/07/04 01:15:49;;;;;;;5.20;4.70;;;;;;;16.11;71.39;99903.39;213139;1280;140459;-66
2022/07/04 01:20:53;;;;;;;5.30;4.80;;;;;;;16.08;71.31;99906.51;213127;1281;139937;-66
2022/07/04 01:25:57;;;;;;;6.60;5.20;;;;;;;16.05;71.38;99905.63;213242;1280;141896;-66
2022/07/04 01:31:00;;;;;;;5.80;5.30;;;;;;;15.98;71.61;99910.45;213045;1281;141103;-66
2022/07/04 01:36:03;;;;;;;5.50;4.90;;;;;;;15.97;71.77;99905.66;213251;1279;140633;-65
2022/07/04 01:41:06;;;;;;;12.30;5.70;;;;;;;15.97;71.69;99915.88;213223;1280;141327;-66
2022/07/04 01:46:09;;;;;;;4.40;4.10;;;;;;;15.92;71.79;99908.52;213154;1281;140852;-64
2022/07/04 01:51:13;;;;;;;5.50;5.00;;;;;;;15.90;71.70;99904.64;212907;1280;233424;-66
2022/07/04 01:56:16;;;;;;;6.90;4.60;;;;;;;15.87;71.68;99896.30;213003;1281;142454;-67
2022/07/04 02:01:32;;;;;;;9.40;5.20;;;;;;;15.78;71.59;99898.16;213101;1281;140536;-65
2022/07/04 02:06:38;;;;;;;6.00;5.40;;;;;;;15.59;71.36;99898.41;213245;1281;230423;-64
2022/07/04 02:17:03;;;;;;;7.90;4.50;;;;;;;15.51;71.79;99899.02;215441;1280;140793;-65
2022/07/04 02:22:06;;;;;;;7.50;5.50;;;;;;;15.49;71.69;99893.84;215139;1280;141061;-65
2022/07/04 02:27:09;;;;;;;11.90;6.20;;;;;;;15.42;71.41;99892.04;214803;1281;141069;-67
2022/07/04 02:32:12;;;;;;;9.30;5.10;;;;;;;15.42;71.49;99894.34;215024;1281;163639;-67
2022/07/04 02:37:16;;;;;;;5.10;4.60;;;;;;;15.42;71.39;99899.98;214778;1280;142197;-65
2022/07/04 02:42:20;;;;;;;8.40;6.40;;;;;;;15.39;71.19;99898.52;213772;1280;141325;-65
2022/07/04 02:47:22;;;;;;;5.70;5.10;;;;;;;15.31;71.28;99894.61;213275;1281;140677;-67
2022/07/04 02:52:25;;;;;;;6.60;4.50;;;;;;;15.28;71.35;99902.02;213155;1281;141732;-66
2022/07/04 02:57:27;;;;;;;5.60;5.00;;;;;;;15.24;71.41;99901.16;213058;1281;142562;-65
2022/07/04 03:02:30;;;;;;;5.40;4.90;;;;;;;15.11;71.42;99897.52;213038;1281;232402;-67
2022/07/04 03:07:32;;;;;;;8.20;5.40;;;;;;;15.02;71.45;99896.13;213163;1281;140943;-66
2022/07/04 03:12:35;;;;;;;10.00;5.30;;;;;;;14.90;71.40;99894.95;212940;1281;141958;-66
2022/07/04 03:17:38;;;;;;;15.10;4.80;;;;;;;14.91;72.06;99896.94;213064;1281;142450;-66
2022/07/04 03:22:41;;;;;;;9.20;5.30;;;;;;;15.02;72.30;99897.31;213034;1281;140812;-65
2022/07/04 03:27:44;;;;;;;5.70;5.20;;;;;;;15.12;72.55;99900.44;212963;1281;141033;-66
2022/07/04 03:32:46;;;;;;;6.20;5.30;;;;;;;15.27;72.94;99903.41;213047;1281;141298;-65
2022/07/04 03:37:49;;;;;;;5.90;5.40;;;;;;;15.37;72.79;99903.02;212947;1281;140836;-65
2022/07/04 03:42:52;;;;;;;6.40;5.80;;;;;;;15.49;72.95;99906.27;212892;1281;142138;-66
2022/07/04 03:47:56;;;;;;;7.20;5.60;;;;;;;15.79;72.91;99913.74;213205;1280;140677;-66
2022/07/04 03:52:59;;;;;;;6.60;6.00;;;;;;;16.28;72.85;99913.68;213223;1279;140267;-64
2022/07/04 03:58:04;;;;;;;6.30;5.80;;;;;;;16.53;72.55;99917.52;212529;1281;140146;-66
2022/07/04 04:08:30;;;;;;;8.20;7.50;;;;;;;17.18;72.22;99925.90;212678;1281;140152;-64
2022/07/04 04:13:33;;;;;;;13.10;6.60;;;;;;;17.17;72.56;99919.88;214821;1280;139282;-66
2022/07/04 04:18:37;;;;;;;7.10;6.50;;;;;;;17.29;73.04;99917.64;213788;1281;139937;-66
2022/07/04 04:23:39;;;;;;;7.70;7.00;;;;;;;17.70;72.96;99916.62;215098;1281;140372;-66
2022/07/04 04:28:43;;;;;;;7.10;6.40;;;;;;;18.29;72.70;99911.05;214954;1281;140618;-66
2022/07/04 04:33:46;;;;;;;5.80;5.30;;;;;;;19.14;72.54;99908.77;213809;1280;139740;-65
2022/07/04 04:38:49;;;;;;;4.90;4.50;;;;;;;19.87;71.73;99902.34;214025;1281;140403;-65
2022/07/04 04:43:52;;;;;;;5.00;4.70;;;;;;;21.55;69.22;99903.23;213002;1278;139235;-65
2022/07/04 04:48:55;;;;;;;5.90;4.90;;;;;;;23.25;67.05;99905.45;213021;1281;140435;-65
2022/07/04 04:53:58;;;;;;;5.10;4.70;;;;;;;25.50;61.95;99900.09;212743;1280;139755;-64
2022/07/04 04:59:00;;;;;;;5.60;4.90;;;;;;;25.25;60.85;99900.39;212836;1281;139681;-63
2022/07/04 05:04:04;;;;;;;5.90;5.30;;;;;;;24.64;60.00;99896.20;212612;1281;139848;-64
2022/07/04 05:09:07;;;;;;;5.40;4.90;;;;;;;24.94;59.53;99903.65;212917;1279;139589;-67
2022/07/04 05:14:10;;;;;;;5.10;4.70;;;;;;;27.40;56.32;99905.21;213104;1279;139614;-64
2022/07/04 05:19:13;;;;;;;4.60;3.60;;;;;;;31.12;51.54;99905.30;213235;1281;139467;-65
2022/07/04 05:24:16;;;;;;;3.50;3.30;;;;;;;34.27;48.04;99906.34;212928;1281;232645;-63
2022/07/04 05:29:20;;;;;;;2.60;2.50;;;;;;;37.09;43.72;99911.67;212997;1281;139605;-64
2022/07/04 05:34:23;;;;;;;5.60;2.10;;;;;;;38.26;38.65;99916.58;212957;1279;140474;-65
2022/07/04 05:39:25;;;;;;;1.90;1.80;;;;;;;39.00;36.66;99913.52;212570;1281;142571;-64
2022/07/04 05:44:29;;;;;;;2.60;2.40;;;;;;;40.21;35.08;99916.01;212673;1281;140221;-64
2022/07/04 05:49:33;;;;;;;2.10;2.00;;;;;;;41.08;33.30;99919.38;212726;1281;140292;-64
2022/07/04 05:54:36;;;;;;;2.50;2.20;;;;;;;41.86;31.43;99913.15;212909;1281;141514;-67
2022/07/04 05:59:39;;;;;;;2.90;1.90;;;;;;;42.30;30.33;99902.13;214521;1281;139338;-67
2022/07/04 06:04:43;;;;;;;2.50;2.30;;;;;;;43.59;29.24;99895.71;215001;1280;139879;-67
2022/07/04 06:09:46;;;;;;;2.50;2.30;;;;;;;44.13;27.98;99892.12;214789;1280;139813;-68
2022/07/04 06:14:52;;;;;;;3.20;1.80;;;;;;;44.42;27.38;99884.36;214736;1281;139928;-67
2022/07/04 06:19:57;;;;;;;2.40;2.30;;;;;;;44.26;25.97;99874.45;214626;1281;139772;-69
2022/07/04 06:24:59;;;;;;;2.70;2.50;;;;;;;43.63;25.96;99883.80;211878;1281;3239768;-66
2022/07/04 06:30:03;;;;;;;4.20;2.30;;;;;;;43.81;25.64;99887.70;212880;1279;139573;-66
2022/07/04 06:40:30;;;;;;;3.20;2.40;;;;;;;43.71;24.83;99885.64;213049;1281;138896;-66
2022/07/04 06:45:36;;;;;;;2.70;2.60;;;;;;;42.73;24.94;99883.56;212626;1281;140573;-64
2022/07/04 06:50:42;;;;;;;2.10;1.90;;;;;;;42.71;25.66;99891.00;213064;1281;140508;-65
2022/07/04 06:55:45;;;;;;;5.20;2.90;;;;;;;42.85;25.07;99893.69;212693;1281;139203;-68
2022/07/04 07:00:48;;;;;;;2.60;2.50;;;;;;;42.92;25.32;99894.48;212787;1281;139176;-66
2022/07/04 07:05:52;;;;;;;2.80;2.60;;;;;;;42.95;24.72;99900.05;212690;1281;141689;-66
2022/07/04 07:11:17;;;;;;;2.60;2.40;;;;;;;42.93;24.86;99895.41;212970;1281;139400;-66
2022/07/04 07:16:20;;;;;;;3.20;2.80;;;;;;;42.66;24.52;99884.36;212815;1281;138956;-66
2022/07/04 07:21:24;;;;;;;2.60;2.40;;;;;;;42.61;24.84;99888.36;213063;1281;138903;-66
2022/07/04 07:26:27;;;;;;;11.70;3.10;;;;;;;42.95;25.10;99877.55;213175;1281;139693;-65
2022/07/04 07:31:31;;;;;;;2.70;2.50;;;;;;;42.81;25.35;99872.36;213213;1281;231879;-67
2022/07/04 07:36:34;;;;;;;3.20;2.90;;;;;;;41.93;25.74;99868.70;212938;1281;141135;-65
2022/07/04 07:41:37;;;;;;;3.30;3.00;;;;;;;40.89;26.40;99872.79;212879;1281;140176;-66
2022/07/04 07:46:40;;;;;;;2.50;2.30;;;;;;;39.49;26.73;99870.91;213022;1281;141018;-65
2022/07/04 07:51:42;;;;;;;5.00;3.10;;;;;;;38.78;28.26;99874.70;213424;1281;139678;-65
2022/07/04 07:56:45;;;;;;;3.00;2.80;;;;;;;38.30;28.74;99868.96;214851;1281;138778;-68
2022/07/04 08:01:47;;;;;;;3.00;2.80;;;;;;;38.24;29.09;99873.89;214961;1280;139937;-67
2022/07/04 08:06:51;;;;;;;3.20;3.00;;;;;;;37.56;28.79;99878.48;214978;1281;139879;-67
2022/07/04 08:12:15;;;;;;;4.20;2.70;;;;;;;36.26;29.04;99871.94;215007;1280;140660;-67
2022/07/04 08:17:17;;;;;;;3.00;2.70;;;;;;;35.18;30.18;99873.91;214598;1280;140439;-65
2022/07/04 08:22:20;;;;;;;3.10;2.70;;;;;;;34.94;31.11;99868.70;213067;1281;140020;-65
2022/07/04 08:27:23;;;;;;;2.90;2.70;;;;;;;34.91;31.87;99871.14;213011;1281;139903;-65
2022/07/04 08:32:33;;;;;;;2.50;2.30;;;;;;;34.60;31.38;99872.44;212957;1281;140614;-64
2022/07/04 08:37:36;;;;;;;4.10;3.70;;;;;;;34.70;31.96;99876.02;212844;1280;139583;-64
2022/07/04 08:42:39;;;;;;;11.00;4.00;;;;;;;34.75;31.26;99867.17;212982;1281;140179;-65
2022/07/04 08:47:48;;;;;;;2.70;2.50;;;;;;;34.87;31.53;99873.83;212882;1281;140213;-64
2022/07/04 08:52:59;;;;;;;4.30;3.10;;;;;;;34.33;31.14;99869.77;212901;1281;141267;-63
2022/07/04 09:03:29;;;;;;;2.60;2.50;;;;;;;34.00;31.55;99872.10;212825;1279;139806;-67
2022/07/04 09:08:40;;;;;;;3.30;3.00;;;;;;;33.87;32.04;99877.20;212773;1281;140975;-65
2022/07/04 09:13:42;;;;;;;;;;;;;;;33.62;31.97;99875.05;213087;1281;140254;-67
2022/07/04 09:18:46;;;;;;;4.20;3.30;;;;;;;33.51;31.77;99867.01;213512;1281;125938;-65
2022/07/04 09:23:50;;;;;;;3.40;3.20;;;;;;;33.50;31.85;99867.80;212876;1281;140608;-64
2022/07/04 09:28:56;;;;;;;3.60;3.30;;;;;;;33.47;32.39;99865.41;212934;1281;140815;-64
2022/07/04 09:34:04;;;;;;;3.80;3.40;;;;;;;33.26;32.44;99861.31;213007;1281;140224;-64
2022/07/04 09:39:15;;;;;;;3.60;3.30;;;;;;;33.24;33.10;99861.68;213324;1280;140337;-64
2022/07/04 09:44:19;;;;;;;4.40;4.20;;;;;;;33.15;32.88;99859.01;214887;1280;139376;-67
2022/07/04 09:49:23;;;;;;;9.40;3.70;;;;;;;33.23;32.75;99857.67;214934;1281;139717;-67
2022/07/04 09:54:32;;;;;;;4.70;3.40;;;;;;;33.09;32.48;99855.33;214775;1281;140391;-67
2022/07/04 09:59:36;;;;;;;3.40;3.20;;;;;;;33.30;32.65;99844.20;214724;1280;139565;-67
2022/07/04 10:04:45;;;;;;;3.40;3.20;;;;;;;33.43;32.20;99849.11;214855;1281;139395;-67
2022/07/04 10:09:48;;;;;;;2.90;2.70;;;;;;;33.48;31.82;99847.65;214903;1280;140582;-67
2022/07/04 10:14:53;;;;;;;4.70;3.60;;;;;;;33.21;31.92;99846.42;214779;1281;139875;-68
2022/07/04 10:19:58;;;;;;;3.70;3.40;;;;;;;33.10;32.52;99843.02;214057;1281;140526;-66
2022/07/04 10:25:01;;;;;;;3.00;2.80;;;;;;;33.18;32.45;99829.91;212840;1281;139672;-65
2022/07/04 10:30:07;;;;;;;2.70;2.60;;;;;;;33.41;31.64;99821.55;213001;1281;151252;-65
2022/07/04 10:35:15;;;;;;;3.30;3.20;;;;;;;33.66;32.02;99823.89;212848;1281;140542;-65
2022/07/04 10:40:42;;;;;;;3.10;2.80;;;;;;;33.71;32.06;99821.71;212648;1281;141337;-65
2022/07/04 10:45:47;;;;;;;5.60;3.10;;;;;;;33.50;31.82;99821.54;212725;1281;141198;-65
2022/07/04 10:51:01;;;;;;;3.20;3.00;;;;;;;33.28;31.39;99809.33;212775;1281;139587;-65
2022/07/04 10:56:20;;;;;;;3.80;3.60;;;;;;;33.34;31.58;99809.04;212940;1281;139473;-65
2022/07/04 11:01:22;;;;;;;2.90;2.80;;;;;;;33.36;32.09;99810.30;212912;1281;140136;-66
2022/07/04 11:06:43;;;;;;;3.30;3.10;;;;;;;33.26;31.76;99812.21;212905;1281;142085;-66
2022/07/04 11:11:57;;;;;;;4.50;2.80;;;;;;;32.89;32.16;99812.17;213152;1281;140356;-65
2022/07/04 11:17:00;;;;;;;3.60;3.30;;;;;;;32.67;32.61;99805.90;212680;1281;140342;-64
2022/07/04 11:22:05;;;;;;;3.90;3.70;;;;;;;32.25;32.71;99808.27;212751;1279;221836;-65
2022/07/04 11:27:09;;;;;;;4.10;3.80;;;;;;;32.09;34.08;99814.22;212724;1281;140889;-65
2022/07/04 11:32:12;;;;;;;4.10;3.80;;;;;;;31.93;34.88;99827.35;212798;1281;142181;-63
2022/07/04 11:37:15;;;;;;;4.10;3.80;;;;;;;31.88;35.11;99831.77;212501;1281;142639;-63
2022/07/04 11:47:43;;;;;;;4.00;3.50;;;;;;;32.06;35.07;99819.23;212568;1281;163388;-65
2022/07/04 11:52:48;;;;;;;6.70;4.10;;;;;;;31.99;34.02;99808.52;214317;1280;140456;-65
2022/07/04 11:58:12;;;;;;;3.00;2.80;;;;;;;32.35;34.34;99806.63;215032;1281;140676;-67
2022/07/04 12:03:17;;;;;;;3.40;3.20;;;;;;;32.59;34.00;99796.52;214991;1281;141708;-67
2022/07/04 12:08:20;;;;;;;3.90;3.50;;;;;;;32.65;33.80;99785.95;214968;1281;142041;-66
2022/07/04 12:13:30;;;;;;;3.80;3.60;;;;;;;32.66;33.88;99781.94;214918;1278;141549;-66
2022/07/04 12:18:34;;;;;;;3.30;3.10;;;;;;;32.57;33.27;99780.27;213907;1281;140584;-65
2022/07/04 12:23:39;;;;;;;4.50;3.50;;;;;;;32.56;32.63;99770.02;213343;1279;140798;-65
2022/07/04 12:29:09;;;;;;;2.40;2.30;;;;;;;32.54;32.54;99763.84;213047;1281;140743;-65
2022/07/04 12:34:16;;;;;;;3.50;3.20;;;;;;;32.26;32.47;99757.11;212736;1281;140552;-63
2022/07/04 12:39:33;;;;;;;4.20;3.90;;;;;;;31.89;32.72;99748.54;212914;1281;139599;-64
2022/07/04 12:44:37;;;;;;;6.30;3.70;;;;;;;31.59;33.40;99747.84;212762;1281;140045;-64
2022/07/04 12:49:46;;;;;;;3.70;3.30;;;;;;;31.67;33.87;99748.05;212915;1281;139820;-64
2022/07/04 12:55:10;;;;;;;4.20;3.80;;;;;;;31.94;33.92;99748.60;213071;1281;143052;-64
2022/07/04 13:00:15;;;;;;;4.10;3.90;;;;;;;32.16;33.75;99756.14;212784;1281;140040;-64
2022/07/04 13:05:38;;;;;;;3.50;3.20;;;;;;;32.28;33.73;99755.42;212839;1281;139435;-64
2022/07/04 13:10:42;;;;;;;3.60;3.40;;;;;;;32.27;33.13;99752.41;212869;1281;139571;-65
2022/07/04 13:15:44;;;;;;;3.60;3.30;;;;;;;32.12;32.95;99755.87;212790;1281;139975;-65
2022/07/04 13:20:47;;;;;;;4.50;4.10;;;;;;;31.94;33.31;99748.20;212573;1281;140611;-64
2022/07/04 13:25:49;;;;;;;3.90;3.60;;;;;;;31.57;33.74;99746.50;212566;1281;139403;-64
2022/07/04 13:30:52;;;;;;;4.50;4.20;;;;;;;31.19;34.33;99747.80;212830;1281;221533;-64
2022/07/04 13:35:55;;;;;;;4.20;3.90;;;;;;;31.30;34.46;99748.89;212541;1281;140436;-63
2022/07/04 13:40:57;;;;;;;4.90;4.40;;;;;;;31.20;34.77;99742.64;213162;1281;140102;-63
2022/07/04 13:46:00;;;;;;;4.00;3.60;;;;;;;31.02;34.58;99740.80;212952;1281;140150;-65
2022/07/04 13:51:05;;;;;;;3.50;3.20;;;;;;;30.85;34.76;99739.77;214291;1280;141619;-65
2022/07/04 13:56:08;;;;;;;4.60;4.30;;;;;;;30.89;34.99;99738.86;214827;1281;141220;-69
2022/07/04 14:01:12;;;;;;;4.10;3.90;;;;;;;30.67;34.91;99739.47;214931;1280;139969;-69
2022/07/04 14:06:18;;;;;;;3.90;3.70;;;;;;;30.36;35.52;99742.78;214880;1280;139598;-69
2022/07/04 14:11:20;;;;;;;4.90;4.50;;;;;;;30.14;35.65;99744.30;214393;1281;139930;-67
2022/07/04 14:16:22;;;;;;;3.30;3.10;;;;;;;29.89;36.57;99758.41;213320;1281;139498;-65
2022/07/04 14:21:24;;;;;;;5.20;4.20;;;;;;;29.16;37.23;99762.98;213102;1281;141015;-63
2022/07/04 14:26:27;;;;;;;9.90;4.90;;;;;;;28.57;38.38;99751.06;213065;1279;139075;-64
2022/07/04 14:31:30;;;;;;;4.40;3.90;;;;;;;28.13;39.46;99757.67;212909;1281;140104;-65
2022/07/04 14:36:33;;;;;;;6.00;5.10;;;;;;;27.72;40.58;99755.21;212560;1280;139696;-64
2022/07/04 14:41:41;;;;;;;7.50;5.30;;;;;;;27.29;41.67;99754.88;212776;1281;140411;-66
2022/07/04 14:46:43;;;;;;;6.80;5.70;;;;;;;26.86;42.98;99760.34;212950;1281;140072;-65
2022/07/04 14:51:46;;;;;;;8.30;6.60;;;;;;;26.40;44.76;99776.02;212733;1281;139916;-64
2022/07/04 14:56:48;;;;;;;20.50;7.30;;;;;;;26.00;47.54;99796.11;212558;1281;139749;-65
2022/07/04 15:01:52;;;;;;;8.60;6.10;;;;;;;25.50;49.79;99766.19;212815;1279;231959;-65
2022/07/04 15:06:55;;;;;;;8.00;6.40;;;;;;;25.44;51.68;99763.63;212616;1280;139607;-65
2022/07/04 15:11:57;;;;;;;13.40;6.80;;;;;;;25.44;52.05;99765.04;212801;1279;139873;-65
2022/07/04 15:17:00;;;;;;;7.80;6.10;;;;;;;25.45;53.15;99770.98;212790;1279;139694;-65
2022/07/04 15:27:24;;;;;;;6.70;6.20;;;;;;;25.99;54.55;99773.78;212502;1281;140420;-65
2022/07/04 15:32:26;;;;;;;13.00;7.00;;;;;;;26.35;54.60;99765.68;212533;1281;140391;-65
2022/07/04 15:37:29;;;;;;;7.40;6.70;;;;;;;26.62;53.84;99762.43;213093;1281;139613;-66
2022/07/04 15:42:34;;;;;;;7.30;6.80;;;;;;;26.68;53.03;99767.86;212712;1281;139491;-66
2022/07/04 15:47:37;;;;;;;7.50;6.70;;;;;;;26.70;53.13;99772.70;214157;1280;139592;-64
2022/07/04 15:52:40;;;;;;;7.00;6.40;;;;;;;26.77;53.24;99771.70;215099;1281;141108;-65
2022/07/04 15:57:42;;;;;;;6.00;5.60;;;;;;;26.82;52.86;99770.86;215141;1279;140589;-65
2022/07/04 16:02:45;;;;;;;6.60;6.00;;;;;;;26.81;52.19;99770.11;214955;1280;140264;-63
2022/07/04 16:07:47;;;;;;;6.50;5.60;;;;;;;26.78;52.18;99768.36;214676;1281;140580;-68
2022/07/04 16:12:49;;;;;;;6.60;5.70;;;;;;;26.74;52.28;99761.73;213613;1281;141016;-64
2022/07/04 16:17:51;;;;;;;6.70;6.20;;;;;;;26.69;51.95;99766.27;212920;1281;140748;-64
2022/07/04 16:22:55;;;;;;;8.10;6.80;;;;;;;26.63;51.94;99764.02;212902;1281;141451;-65
2022/07/04 16:27:58;;;;;;;6.90;6.40;;;;;;;26.63;52.21;99760.84;213296;1280;141475;-65
2022/07/04 16:33:00;;;;;;;7.10;6.50;;;;;;;26.59;52.32;99765.72;212837;1279;141511;-65
2022/07/04 16:38:03;;;;;;;7.10;6.40;;;;;;;26.59;52.25;99760.78;212763;1281;142485;-63
2022/07/04 16:43:06;;;;;;;8.00;7.10;;;;;;;26.51;51.91;99761.93;212581;1281;141936;-65
2022/07/04 16:48:21;;;;;;;7.80;7.10;;;;;;;26.43;52.12;99767.67;212551;1281;139306;-63
2022/07/04 16:53:24;;;;;;;7.40;6.80;;;;;;;26.38;52.06;99766.48;212886;1279;141593;-65
2022/07/04 16:58:27;;;;;;;6.80;6.30;;;;;;;26.35;52.20;99768.64;212985;1281;141517;-65
2022/07/04 17:03:29;;;;;;;9.10;7.30;;;;;;;26.27;52.07;99771.80;213129;1279;140661;-65
2022/07/04 17:08:38;;;;;;;6.90;6.20;;;;;;;26.19;52.33;99777.13;212746;1281;220832;-63
2022/07/04 17:13:43;;;;;;;7.60;7.10;;;;;;;26.08;52.58;99777.06;212656;1279;140276;-65
2022/07/04 17:18:46;;;;;;;6.80;6.30;;;;;;;25.94;52.66;99780.08;212973;1279;141608;-65
2022/07/04 17:23:49;;;;;;;7.60;7.00;;;;;;;25.83;52.85;99780.85;212526;1281;140474;-64
2022/07/04 17:28:52;;;;;;;7.30;6.50;;;;;;;25.72;53.15;99778.21;213077;1281;140121;-65
2022/07/04 17:33:55;;;;;;;7.70;7.10;;;;;;;25.63;53.63;99778.16;212343;1281;140341;-65
2022/07/04 17:38:58;;;;;;;7.80;6.60;;;;;;;25.52;54.15;99784.28;212463;1281;141991;-64
2022/07/04 17:44:01;;;;;;;7.00;6.50;;;;;;;25.41;54.59;99783.85;213075;1281;141055;-66
2022/07/04 17:49:04;;;;;;;7.10;5.90;;;;;;;25.31;55.52;99783.65;214923;1280;140761;-65
2022/07/04 17:54:14;;;;;;;10.60;7.70;;;;;;;25.18;56.13;99780.13;214770;1279;140780;-65
2022/07/04 17:59:37;;;;;;;7.20;6.60;;;;;;;25.04;56.59;99782.84;214691;1280;140508;-64
2022/07/04 18:04:42;;;;;;;7.30;6.70;;;;;;;24.87;57.14;99788.45;213314;1281;140989;-64
2022/07/04 18:09:46;;;;;;;6.40;5.80;;;;;;;24.67;57.64;99785.15;212768;1281;141139;-65
2022/07/04 18:14:50;;;;;;;8.80;6.50;;;;;;;24.48;58.08;99782.48;213039;1281;154214;-64
2022/07/04 18:19:56;;;;;;;6.70;6.20;;;;;;;24.31;58.32;99782.21;213266;1279;139880;-65
2022/07/04 18:25:00;;;;;;;7.40;6.80;;;;;;;24.11;58.84;99782.98;212188;1281;846860;-64
2022/07/04 18:30:03;;;;;;;7.00;6.40;;;;;;;23.90;59.53;99783.84;212872;1281;139472;-64
2022/07/04 18:35:07;;;;;;;6.80;6.20;;;;;;;23.65;59.83;99779.30;213177;1281;152666;-63
2022/07/04 18:45:32;;;;;;;10.40;7.60;;;;;;;23.26;60.91;99797.48;212633;1279;139934;-65
2022/07/04 18:50:40;;;;;;;8.00;7.40;;;;;;;23.09;61.31;99796.27;212614;1281;140206;-65
2022/07/04 18:55:44;;;;;;;7.90;7.30;;;;;;;22.89;61.79;99799.44;212803;1281;141249;-62
2022/07/04 19:00:46;;;;;;;7.50;6.80;;;;;;;22.76;62.32;99796.30;212771;1281;140260;-63
2022/07/04 19:05:49;;;;;;;8.20;7.40;;;;;;;22.62;62.60;99807.21;212730;1281;140833;-62
2022/07/04 19:10:53;;;;;;;11.00;7.90;;;;;;;22.43;62.74;99806.67;212839;1280;140285;-64
2022/07/04 19:15:56;;;;;;;8.80;7.40;;;;;;;22.22;63.15;99811.84;212830;1281;140402;-64
2022/07/04 19:20:59;;;;;;;7.10;6.40;;;;;;;22.06;63.47;99810.52;212510;1281;140513;-64
2022/07/04 19:26:02;;;;;;;7.30;6.70;;;;;;;21.95;63.94;99809.33;212685;1281;140004;-63
2022/07/04 19:31:04;;;;;;;8.10;7.50;;;;;;;21.74;64.01;99808.98;213515;1281;140084;-65
2022/07/04 19:36:07;;;;;;;6.70;6.20;;;;;;;21.53;64.30;99819.55;214720;1280;139520;-65
2022/07/04 19:41:10;;;;;;;13.60;7.90;;;;;;;21.46;64.65;99833.74;214828;1279;142704;-65
2022/07/04 19:46:13;;;;;;;9.90;7.20;;;;;;;21.42;64.97;99834.66;214802;1281;141359;-65
2022/07/04 19:51:16;;;;;;;10.20;6.40;;;;;;;21.31;64.91;99832.52;214209;1281;140331;-65
2022/07/04 19:56:19;;;;;;;10.40;7.70;;;;;;;21.19;65.01;99839.73;214841;1280;140134;-66
2022/07/04 20:01:22;;;;;;;16.70;7.60;;;;;;;21.11;65.14;99843.55;214766;1280;140544;-65
2022/07/04 20:06:26;;;;;;;9.40;8.60;;;;;;;21.04;65.34;99851.59;213070;1281;140540;-63
2022/07/04 20:11:30;;;;;;;7.50;6.70;;;;;;;20.93;65.64;99855.30;212527;1281;139379;-65
2022/07/04 20:16:34;;;;;;;8.40;7.70;;;;;;;20.82;65.75;99861.30;212894;1281;141721;-63
2022/07/04 20:21:36;;;;;;;8.60;7.60;;;;;;;20.69;65.84;99862.31;212679;1281;140198;-64
2022/07/04 20:26:39;;;;;;;9.20;8.30;;;;;;;20.52;65.99;99865.36;213058;1281;139687;-63
2022/07/04 20:32:02;;;;;;;7.00;6.60;;;;;;;20.37;66.20;99867.45;212875;1281;141704;-63
2022/07/04 20:37:05;;;;;;;8.80;8.00;;;;;;;20.28;66.34;99871.58;212991;1280;141639;-63
2022/07/04 20:42:08;;;;;;;8.70;7.60;;;;;;;20.18;66.43;99879.11;212439;1281;151102;-64
2022/07/04 20:47:11;;;;;;;7.40;6.80;;;;;;;20.02;66.68;99887.48;212903;1281;140261;-64
2022/07/04 20:52:17;;;;;;;9.60;7.80;;;;;;;19.90;67.02;99886.52;212977;1281;140435;-63
2022/07/04 20:57:28;;;;;;;9.00;8.30;;;;;;;19.80;67.04;99891.58;212750;1281;140079;-62
2022/07/04 21:02:33;;;;;;;10.20;8.60;;;;;;;19.67;67.29;99884.45;212723;1281;140063;-64
2022/07/04 21:07:36;;;;;;;11.80;10.40;;;;;;;19.36;67.38;99881.84;212985;1281;139721;-62
2022/07/04 21:12:40;;;;;;;9.80;9.00;;;;;;;19.10;67.95;99879.23;212852;1279;141553;-62
2022/07/04 21:17:43;;;;;;;8.30;7.60;;;;;;;19.08;68.68;99874.55;212638;1281;141191;-64
2022/07/04 21:22:49;;;;;;;9.60;8.70;;;;;;;19.10;68.74;99867.44;213099;1281;139955;-65
2022/07/04 21:27:53;;;;;;;10.40;9.20;;;;;;;19.07;68.95;99869.58;212864;1281;139830;-65
2022/07/04 21:33:00;;;;;;;12.40;8.00;;;;;;;19.02;69.06;99868.93;214736;1281;139958;-66
2022/07/04 21:38:04;;;;;;;8.40;7.70;;;;;;;19.03;69.22;99872.22;215082;1280;141672;-65
2022/07/04 21:43:11;;;;;;;9.60;8.70;;;;;;;19.04;69.24;99873.92;214992;1281;141108;-65
2022/07/04 21:48:14;;;;;;;8.90;8.20;;;;;;;19.04;69.49;99880.47;214796;1281;141781;-63
2022/07/04 21:53:17;;;;;;;10.50;9.70;;;;;;;19.07;69.73;99885.69;215106;1280;141963;-63
2022/07/04 21:58:20;;;;;;;13.50;9.20;;;;;;;19.06;69.62;99886.77;214732;1281;141468;-62
2022/07/04 22:03:23;;;;;;;8.50;7.90;;;;;;;19.02;69.68;99888.54;213613;1281;140820;-65
2022/07/04 22:08:26;;;;;;;10.10;8.40;;;;;;;19.00;69.83;99887.44;213188;1280;162063;-66
2022/07/04 22:13:29;;;;;;;11.50;9.00;;;;;;;18.89;69.82;99901.61;213030;1281;140720;-64
2022/07/04 22:18:35;;;;;;;9.50;8.40;;;;;;;18.87;70.16;99910.11;212984;1279;141535;-65
2022/07/04 22:23:38;;;;;;;11.10;9.60;;;;;;;18.77;70.40;99913.70;212763;1281;143322;-64
2022/07/04 22:28:41;;;;;;;13.50;9.00;;;;;;;18.67;71.04;99923.67;212955;1281;141126;-63
2022/07/04 22:33:44;;;;;;;17.40;11.10;;;;;;;18.67;71.49;99928.33;212861;1281;140742;-65
2022/07/04 22:38:49;;;;;;;11.70;10.70;;;;;;;18.61;71.74;99936.05;212643;1281;141941;-65
2022/07/04 22:43:53;;;;;;;12.20;10.90;;;;;;;18.67;72.29;99938.79;212597;1280;140718;-63
2022/07/04 22:48:57;;;;;;;14.50;12.10;;;;;;;18.74;72.39;99935.92;212807;1280;140711;-64
2022/07/04 22:59:23;;;;;;;13.80;12.10;;;;;;;18.84;72.59;99951.40;212723;1281;163222;-65
2022/07/04 23:04:29;;;;;;;11.10;10.20;;;;;;;18.79;72.73;99963.05;213027;1281;140534;-65
2022/07/04 23:09:31;;;;;;;13.20;12.00;;;;;;;18.76;73.18;99976.52;212964;1281;140233;-65
2022/07/04 23:14:35;;;;;;;12.40;10.90;;;;;;;18.84;73.34;99972.58;212719;1281;140860;-66
2022/07/04 23:19:38;;;;;;;9.20;8.50;;;;;;;18.96;73.20;99965.06;212456;1281;142234;-64
2022/07/04 23:24:42;;;;;;;9.20;8.20;;;;;;;19.06;73.05;99960.05;214826;1281;140260;-65
2022/07/04 23:29:45;;;;;;;10.20;6.90;;;;;;;19.14;72.76;99950.63;214802;1281;140092;-65
2022/07/04 23:34:48;;;;;;;7.10;6.40;;;;;;;19.20;72.26;99945.44;215056;1279;141143;-65
2022/07/04 23:39:52;;;;;;;7.40;5.80;;;;;;;19.27;71.89;99942.87;214828;1280;141321;-65
2022/07/04 23:44:54;;;;;;;6.10;5.60;;;;;;;19.33;71.79;99940.09;215117;1280;142247;-65
2022/07/04 23:49:58;;;;;;;6.10;5.10;;;;;;;19.39;71.81;99941.34;214925;1281;141574;-65
2022/07/04 23:55:02;;;;;;;6.70;6.00;;;;;;;19.28;71.71;99949.40;214788;1281;139422;-64
